sensor_id;sensor_type;location;lat;lon;timestamp;temperature;humidity
18041;DHT22;9145;48.588;9.250;2022-11-11T00:01:20;6.20;99.90
18041;DHT22;9145;48.588;9.250;2022-11-11T00:03:47;6.10;99.90
18041;DHT22;9145;48.588;9.250;2022-11-11T00:06:15;6.10;99.90
18041;DHT22;9145;48.588;9.250;2022-11-11T00:08:45;6.00;99.90
18041;DHT22;9145;48.588;9.250;2022-11-11T00:11:14;6.00;99.90
18041;DHT22;9145;48.588;9.250;2022-11-11T00:13:42;5.90;99.90
18041;DHT22;9145;48.588;9.250;2022-11-11T00:16:11;5.90;99.90
18041;DHT22;9145;48.588;9.250;2022-11-11T00:18:39;5.90;99.90
18041;DHT22;9145;48.588;9.250;2022-11-11T00:21:24;6.00;99.90
18041;DHT22;9145;48.588;9.250;2022-11-11T00:24:19;5.90;99.90
18041;DHT22;9145;48.588;9.250;2022-11-11T00:27:06;5.90;99.90
18041;DHT22;9145;48.588;9.250;2022-11-11T00:29:33;5.80;99.90
18041;DHT22;9145;48.588;9.250;2022-11-11T00:32:00;5.70;99.90
18041;DHT22;9145;48.588;9.250;2022-11-11T00:34:44;5.60;99.90
18041;DHT22;9145;48.588;9.250;2022-11-11T00:37:25;5.60;99.90
18041;DHT22;9145;48.588;9.250;2022-11-11T00:39:52;5.60;99.90
18041;DHT22;9145;48.588;9.250;2022-11-11T00:42:20;5.70;99.90
18041;DHT22;9145;48.588;9.250;2022-11-11T00:44:47;5.70;99.90
18041;DHT22;9145;48.588;9.250;2022-11-11T00:47:14;5.70;99.90
18041;DHT22;9145;48.588;9.250;2022-11-11T00:49:58;5.70;99.90
18041;DHT22;9145;48.588;9.250;2022-11-11T00:52:44;5.60;99.90
18041;DHT22;9145;48.588;9.250;2022-11-11T00:55:11;5.70;99.90
18041;DHT22;9145;48.588;9.250;2022-11-11T00:57:39;5.60;99.90
18041;DHT22;9145;48.588;9.250;2022-11-11T01:00:07;5.70;99.90
18041;DHT22;9145;48.588;9.250;2022-11-11T01:02:34;5.60;99.90
18041;DHT22;9145;48.588;9.250;2022-11-11T01:05:01;5.60;99.90
18041;DHT22;9145;48.588;9.250;2022-11-11T01:07:28;5.60;99.90
18041;DHT22;9145;48.588;9.250;2022-11-11T01:09:55;5.60;99.90
18041;DHT22;9145;48.588;9.250;2022-11-11T01:12:21;5.60;99.90
18041;DHT22;9145;48.588;9.250;2022-11-11T01:14:50;5.60;99.90
18041;DHT22;9145;48.588;9.250;2022-11-11T01:17:18;5.60;99.90
18041;DHT22;9145;48.588;9.250;2022-11-11T01:19:45;5.60;99.90
18041;DHT22;9145;48.588;9.250;2022-11-11T01:22:11;5.60;99.90
18041;DHT22;9145;48.588;9.250;2022-11-11T01:24:38;5.60;99.90
18041;DHT22;9145;48.588;9.250;2022-11-11T01:27:05;5.50;99.90
18041;DHT22;9145;48.588;9.250;2022-11-11T01:29:32;5.50;99.90
18041;DHT22;9145;48.588;9.250;2022-11-11T01:32:00;5.40;99.90
18041;DHT22;9145;48.588;9.250;2022-11-11T01:34:27;5.40;99.90
18041;DHT22;9145;48.588;9.250;2022-11-11T01:36:54;5.40;99.90
18041;DHT22;9145;48.588;9.250;2022-11-11T01:39:20;5.40;99.90
18041;DHT22;9145;48.588;9.250;2022-11-11T01:41:47;5.40;99.90
18041;DHT22;9145;48.588;9.250;2022-11-11T01:44:38;5.50;99.90
18041;DHT22;9145;48.588;9.250;2022-11-11T01:47:07;5.40;99.90
18041;DHT22;9145;48.588;9.250;2022-11-11T01:49:38;5.40;99.90
18041;DHT22;9145;48.588;9.250;2022-11-11T01:52:10;5.40;99.90
18041;DHT22;9145;48.588;9.250;2022-11-11T01:54:42;5.50;99.90
18041;DHT22;9145;48.588;9.250;2022-11-11T01:57:13;5.50;99.90
18041;DHT22;9145;48.588;9.250;2022-11-11T01:59:43;5.40;99.90
18041;DHT22;9145;48.588;9.250;2022-11-11T02:02:16;5.40;99.90
18041;DHT22;9145;48.588;9.250;2022-11-11T02:04:46;5.30;99.90
18041;DHT22;9145;48.588;9.250;2022-11-11T02:07:30;5.20;99.90
18041;DHT22;9145;48.588;9.250;2022-11-11T02:09:59;5.20;99.90
18041;DHT22;9145;48.588;9.250;2022-11-11T02:12:27;5.30;99.90
18041;DHT22;9145;48.588;9.250;2022-11-11T02:15:12;5.30;99.90
18041;DHT22;9145;48.588;9.250;2022-11-11T02:17:40;5.30;99.90
18041;DHT22;9145;48.588;9.250;2022-11-11T02:20:09;5.30;99.90
18041;DHT22;9145;48.588;9.250;2022-11-11T02:22:41;5.30;99.90
18041;DHT22;9145;48.588;9.250;2022-11-11T02:25:15;5.10;99.90
18041;DHT22;9145;48.588;9.250;2022-11-11T02:27:45;5.00;99.90
18041;DHT22;9145;48.588;9.250;2022-11-11T02:30:14;4.90;99.90
18041;DHT22;9145;48.588;9.250;2022-11-11T02:32:42;4.90;99.90
18041;DHT22;9145;48.588;9.250;2022-11-11T02:35:15;5.00;99.90
18041;DHT22;9145;48.588;9.250;2022-11-11T02:37:44;4.90;99.90
18041;DHT22;9145;48.588;9.250;2022-11-11T02:40:16;4.90;99.90
18041;DHT22;9145;48.588;9.250;2022-11-11T02:42:44;4.80;99.90
18041;DHT22;9145;48.588;9.250;2022-11-11T02:45:11;4.90;99.90
18041;DHT22;9145;48.588;9.250;2022-11-11T02:47:38;4.90;99.90
18041;DHT22;9145;48.588;9.250;2022-11-11T02:50:05;5.00;99.90
18041;DHT22;9145;48.588;9.250;2022-11-11T02:52:32;5.10;99.90
18041;DHT22;9145;48.588;9.250;2022-11-11T02:54:59;5.10;99.90
18041;DHT22;9145;48.588;9.250;2022-11-11T02:57:28;5.10;99.90
18041;DHT22;9145;48.588;9.250;2022-11-11T02:59:57;5.20;99.90
18041;DHT22;9145;48.588;9.250;2022-11-11T03:02:25;5.20;99.90
18041;DHT22;9145;48.588;9.250;2022-11-11T03:04:52;5.00;99.90
18041;DHT22;9145;48.588;9.250;2022-11-11T03:07:19;4.90;99.90
18041;DHT22;9145;48.588;9.250;2022-11-11T03:09:47;4.90;99.90
18041;DHT22;9145;48.588;9.250;2022-11-11T03:12:14;4.90;99.90
18041;DHT22;9145;48.588;9.250;2022-11-11T03:14:42;4.90;99.90
18041;DHT22;9145;48.588;9.250;2022-11-11T03:17:09;5.00;99.90
18041;DHT22;9145;48.588;9.250;2022-11-11T03:19:53;4.90;99.90
18041;DHT22;9145;48.588;9.250;2022-11-11T03:22:40;5.00;99.90
18041;DHT22;9145;48.588;9.250;2022-11-11T03:25:07;5.10;99.90
18041;DHT22;9145;48.588;9.250;2022-11-11T03:27:52;5.20;99.90
18041;DHT22;9145;48.588;9.250;2022-11-11T03:30:20;5.20;99.90
18041;DHT22;9145;48.588;9.250;2022-11-11T03:32:47;5.20;99.90
18041;DHT22;9145;48.588;9.250;2022-11-11T03:35:14;5.30;99.90
18041;DHT22;9145;48.588;9.250;2022-11-11T03:37:40;5.30;99.90
18041;DHT22;9145;48.588;9.250;2022-11-11T03:40:25;5.30;99.90
18041;DHT22;9145;48.588;9.250;2022-11-11T03:42:52;5.20;99.90
18041;DHT22;9145;48.588;9.250;2022-11-11T03:45:20;5.10;99.90
18041;DHT22;9145;48.588;9.250;2022-11-11T03:47:47;5.00;99.90
18041;DHT22;9145;48.588;9.250;2022-11-11T03:50:14;4.90;99.90
18041;DHT22;9145;48.588;9.250;2022-11-11T03:52:41;4.80;99.90
18041;DHT22;9145;48.588;9.250;2022-11-11T03:55:08;4.80;99.90
18041;DHT22;9145;48.588;9.250;2022-11-11T03:57:40;4.80;99.90
18041;DHT22;9145;48.588;9.250;2022-11-11T04:00:08;4.70;99.90
18041;DHT22;9145;48.588;9.250;2022-11-11T04:02:37;4.60;99.90
18041;DHT22;9145;48.588;9.250;2022-11-11T04:05:21;4.50;99.90
18041;DHT22;9145;48.588;9.250;2022-11-11T04:08:07;4.50;99.90
18041;DHT22;9145;48.588;9.250;2022-11-11T04:10:52;4.40;99.90
18041;DHT22;9145;48.588;9.250;2022-11-11T04:13:19;4.40;99.90
18041;DHT22;9145;48.588;9.250;2022-11-11T04:16:03;4.40;99.90
18041;DHT22;9145;48.588;9.250;2022-11-11T04:18:36;4.40;99.90
18041;DHT22;9145;48.588;9.250;2022-11-11T04:21:21;4.50;99.90
18041;DHT22;9145;48.588;9.250;2022-11-11T04:24:06;4.50;99.90
18041;DHT22;9145;48.588;9.250;2022-11-11T04:26:47;4.60;99.90
18041;DHT22;9145;48.588;9.250;2022-11-11T04:29:14;4.70;99.90
18041;DHT22;9145;48.588;9.250;2022-11-11T04:31:56;4.80;99.90
18041;DHT22;9145;48.588;9.250;2022-11-11T04:34:44;4.90;99.90
18041;DHT22;9145;48.588;9.250;2022-11-11T04:37:11;5.00;99.90
18041;DHT22;9145;48.588;9.250;2022-11-11T04:39:39;5.10;99.90
18041;DHT22;9145;48.588;9.250;2022-11-11T04:42:23;5.20;99.90
18041;DHT22;9145;48.588;9.250;2022-11-11T04:44:50;5.20;99.90
18041;DHT22;9145;48.588;9.250;2022-11-11T04:47:35;5.30;99.90
18041;DHT22;9145;48.588;9.250;2022-11-11T04:50:04;5.30;99.90
18041;DHT22;9145;48.588;9.250;2022-11-11T04:52:31;5.30;99.90
18041;DHT22;9145;48.588;9.250;2022-11-11T04:54:58;5.30;99.90
18041;DHT22;9145;48.588;9.250;2022-11-11T04:57:44;5.20;99.90
18041;DHT22;9145;48.588;9.250;2022-11-11T05:00:13;5.20;99.90
18041;DHT22;9145;48.588;9.250;2022-11-11T05:02:40;5.20;99.90
18041;DHT22;9145;48.588;9.250;2022-11-11T05:05:26;5.10;99.90
18041;DHT22;9145;48.588;9.250;2022-11-11T05:07:53;5.10;99.90
18041;DHT22;9145;48.588;9.250;2022-11-11T05:10:38;5.00;99.90
18041;DHT22;9145;48.588;9.250;2022-11-11T05:13:05;5.00;99.90
18041;DHT22;9145;48.588;9.250;2022-11-11T05:15:49;4.80;99.90
18041;DHT22;9145;48.588;9.250;2022-11-11T05:18:34;4.70;99.90
18041;DHT22;9145;48.588;9.250;2022-11-11T05:21:21;4.70;99.90
18041;DHT22;9145;48.588;9.250;2022-11-11T05:23:49;4.60;99.90
18041;DHT22;9145;48.588;9.250;2022-11-11T05:26:34;4.60;99.90
18041;DHT22;9145;48.588;9.250;2022-11-11T05:29:01;4.50;99.90
18041;DHT22;9145;48.588;9.250;2022-11-11T05:31:28;4.50;99.90
18041;DHT22;9145;48.588;9.250;2022-11-11T05:33:55;4.50;99.90
18041;DHT22;9145;48.588;9.250;2022-11-11T05:36:24;4.50;99.90
18041;DHT22;9145;48.588;9.250;2022-11-11T05:38:50;4.50;99.90
18041;DHT22;9145;48.588;9.250;2022-11-11T05:41:17;4.40;99.90
18041;DHT22;9145;48.588;9.250;2022-11-11T05:43:44;4.40;99.90
18041;DHT22;9145;48.588;9.250;2022-11-11T05:46:11;4.50;99.90
18041;DHT22;9145;48.588;9.250;2022-11-11T05:48:38;4.50;99.90
18041;DHT22;9145;48.588;9.250;2022-11-11T05:51:26;4.50;99.90
18041;DHT22;9145;48.588;9.250;2022-11-11T05:53:56;4.50;99.90
18041;DHT22;9145;48.588;9.250;2022-11-11T05:56:23;4.50;99.90
18041;DHT22;9145;48.588;9.250;2022-11-11T05:58:50;4.60;99.90
18041;DHT22;9145;48.588;9.250;2022-11-11T06:01:17;4.60;99.90
18041;DHT22;9145;48.588;9.250;2022-11-11T06:03:44;4.60;99.90
18041;DHT22;9145;48.588;9.250;2022-11-11T06:06:12;4.60;99.90
18041;DHT22;9145;48.588;9.250;2022-11-11T06:08:40;4.50;99.90
18041;DHT22;9145;48.588;9.250;2022-11-11T06:11:07;4.40;99.90
18041;DHT22;9145;48.588;9.250;2022-11-11T06:13:34;4.40;99.90
18041;DHT22;9145;48.588;9.250;2022-11-11T06:16:02;4.30;99.90
18041;DHT22;9145;48.588;9.250;2022-11-11T06:18:29;4.30;99.90
18041;DHT22;9145;48.588;9.250;2022-11-11T06:20:57;4.40;99.90
18041;DHT22;9145;48.588;9.250;2022-11-11T06:23:25;4.40;99.90
18041;DHT22;9145;48.588;9.250;2022-11-11T06:25:54;4.40;99.90
18041;DHT22;9145;48.588;9.250;2022-11-11T06:28:42;4.50;99.90
18041;DHT22;9145;48.588;9.250;2022-11-11T06:31:11;4.50;99.90
18041;DHT22;9145;48.588;9.250;2022-11-11T06:33:38;4.40;99.90
18041;DHT22;9145;48.588;9.250;2022-11-11T06:36:06;4.20;99.90
18041;DHT22;9145;48.588;9.250;2022-11-11T06:38:33;4.20;99.90
18041;DHT22;9145;48.588;9.250;2022-11-11T06:41:01;4.00;99.90
18041;DHT22;9145;48.588;9.250;2022-11-11T06:43:28;4.10;99.90
18041;DHT22;9145;48.588;9.250;2022-11-11T06:45:55;4.00;99.90
18041;DHT22;9145;48.588;9.250;2022-11-11T06:48:24;4.10;99.90
18041;DHT22;9145;48.588;9.250;2022-11-11T06:50:51;4.20;99.90
18041;DHT22;9145;48.588;9.250;2022-11-11T06:53:19;4.20;99.90
18041;DHT22;9145;48.588;9.250;2022-11-11T06:55:50;4.10;99.90
18041;DHT22;9145;48.588;9.250;2022-11-11T06:58:19;4.10;99.90
18041;DHT22;9145;48.588;9.250;2022-11-11T07:00:47;4.10;99.90
18041;DHT22;9145;48.588;9.250;2022-11-11T07:03:16;4.20;99.90
18041;DHT22;9145;48.588;9.250;2022-11-11T07:05:44;4.20;99.90
18041;DHT22;9145;48.588;9.250;2022-11-11T07:08:12;4.30;99.90
18041;DHT22;9145;48.588;9.250;2022-11-11T07:10:43;4.30;99.90
18041;DHT22;9145;48.588;9.250;2022-11-11T07:13:10;4.40;99.90
18041;DHT22;9145;48.588;9.250;2022-11-11T07:15:39;4.40;99.90
18041;DHT22;9145;48.588;9.250;2022-11-11T07:18:06;4.40;99.90
18041;DHT22;9145;48.588;9.250;2022-11-11T07:20:33;4.40;99.90
18041;DHT22;9145;48.588;9.250;2022-11-11T07:23:00;4.40;99.90
18041;DHT22;9145;48.588;9.250;2022-11-11T07:25:27;4.50;99.90
18041;DHT22;9145;48.588;9.250;2022-11-11T07:27:53;4.50;99.90
18041;DHT22;9145;48.588;9.250;2022-11-11T07:30:20;4.60;99.90
18041;DHT22;9145;48.588;9.250;2022-11-11T07:32:50;4.60;99.90
18041;DHT22;9145;48.588;9.250;2022-11-11T07:35:18;4.70;99.90
18041;DHT22;9145;48.588;9.250;2022-11-11T07:37:45;4.80;99.90
18041;DHT22;9145;48.588;9.250;2022-11-11T07:40:14;4.80;99.90
18041;DHT22;9145;48.588;9.250;2022-11-11T07:42:42;4.80;99.90
18041;DHT22;9145;48.588;9.250;2022-11-11T07:45:11;4.80;99.90
18041;DHT22;9145;48.588;9.250;2022-11-11T07:47:38;4.90;99.90
18041;DHT22;9145;48.588;9.250;2022-11-11T07:50:07;4.90;99.90
18041;DHT22;9145;48.588;9.250;2022-11-11T07:52:34;4.90;99.90
18041;DHT22;9145;48.588;9.250;2022-11-11T07:55:02;5.00;99.90
18041;DHT22;9145;48.588;9.250;2022-11-11T07:57:28;5.10;99.90
18041;DHT22;9145;48.588;9.250;2022-11-11T07:59:55;5.10;99.90
18041;DHT22;9145;48.588;9.250;2022-11-11T08:02:22;5.20;99.90
18041;DHT22;9145;48.588;9.250;2022-11-11T08:04:49;5.20;99.90
18041;DHT22;9145;48.588;9.250;2022-11-11T08:07:17;5.30;99.90
18041;DHT22;9145;48.588;9.250;2022-11-11T08:09:44;5.30;99.90
18041;DHT22;9145;48.588;9.250;2022-11-11T08:12:11;5.40;99.90
18041;DHT22;9145;48.588;9.250;2022-11-11T08:14:55;5.40;99.90
18041;DHT22;9145;48.588;9.250;2022-11-11T08:17:22;5.50;99.90
18041;DHT22;9145;48.588;9.250;2022-11-11T08:19:49;5.60;99.90
18041;DHT22;9145;48.588;9.250;2022-11-11T08:22:17;5.70;99.90
18041;DHT22;9145;48.588;9.250;2022-11-11T08:24:44;5.70;99.90
18041;DHT22;9145;48.588;9.250;2022-11-11T08:27:11;5.80;99.90
18041;DHT22;9145;48.588;9.250;2022-11-11T08:29:38;5.80;99.90
18041;DHT22;9145;48.588;9.250;2022-11-11T08:32:05;5.80;99.90
18041;DHT22;9145;48.588;9.250;2022-11-11T08:34:32;5.80;99.90
18041;DHT22;9145;48.588;9.250;2022-11-11T08:36:58;5.80;99.90
18041;DHT22;9145;48.588;9.250;2022-11-11T08:39:27;5.90;99.90
18041;DHT22;9145;48.588;9.250;2022-11-11T08:41:53;6.00;99.90
18041;DHT22;9145;48.588;9.250;2022-11-11T08:44:20;6.00;99.90
18041;DHT22;9145;48.588;9.250;2022-11-11T08:46:47;6.00;99.90
18041;DHT22;9145;48.588;9.250;2022-11-11T08:49:14;6.10;99.90
18041;DHT22;9145;48.588;9.250;2022-11-11T08:51:41;6.10;99.90
18041;DHT22;9145;48.588;9.250;2022-11-11T08:54:08;6.20;99.90
18041;DHT22;9145;48.588;9.250;2022-11-11T08:56:36;6.20;99.90
18041;DHT22;9145;48.588;9.250;2022-11-11T08:59:03;6.30;99.90
18041;DHT22;9145;48.588;9.250;2022-11-11T09:01:30;6.30;99.90
18041;DHT22;9145;48.588;9.250;2022-11-11T09:03:57;6.40;99.90
18041;DHT22;9145;48.588;9.250;2022-11-11T09:06:23;6.50;99.90
18041;DHT22;9145;48.588;9.250;2022-11-11T09:08:50;6.50;99.90
18041;DHT22;9145;48.588;9.250;2022-11-11T09:11:17;6.50;99.90
18041;DHT22;9145;48.588;9.250;2022-11-11T09:13:46;6.60;99.90
18041;DHT22;9145;48.588;9.250;2022-11-11T09:16:13;6.70;99.90
18041;DHT22;9145;48.588;9.250;2022-11-11T09:18:40;6.80;99.90
18041;DHT22;9145;48.588;9.250;2022-11-11T09:21:07;6.90;99.90
18041;DHT22;9145;48.588;9.250;2022-11-11T09:23:34;7.10;99.90
18041;DHT22;9145;48.588;9.250;2022-11-11T09:26:01;7.30;99.90
18041;DHT22;9145;48.588;9.250;2022-11-11T09:28:29;7.30;99.90
18041;DHT22;9145;48.588;9.250;2022-11-11T09:31:00;7.40;99.90
18041;DHT22;9145;48.588;9.250;2022-11-11T09:33:27;7.50;99.90
18041;DHT22;9145;48.588;9.250;2022-11-11T09:35:53;7.70;99.90
18041;DHT22;9145;48.588;9.250;2022-11-11T09:38:20;7.90;99.90
18041;DHT22;9145;48.588;9.250;2022-11-11T09:41:02;8.10;99.90
18041;DHT22;9145;48.588;9.250;2022-11-11T09:43:35;8.40;99.90
18041;DHT22;9145;48.588;9.250;2022-11-11T09:46:16;8.70;99.90
18041;DHT22;9145;48.588;9.250;2022-11-11T09:48:56;8.80;99.90
18041;DHT22;9145;48.588;9.250;2022-11-11T09:51:30;9.00;99.90
18041;DHT22;9145;48.588;9.250;2022-11-11T09:54:00;9.20;99.90
18041;DHT22;9145;48.588;9.250;2022-11-11T09:56:32;9.40;99.90
18041;DHT22;9145;48.588;9.250;2022-11-11T09:59:04;9.50;99.90
18041;DHT22;9145;48.588;9.250;2022-11-11T10:01:38;9.60;99.90
18041;DHT22;9145;48.588;9.250;2022-11-11T10:04:16;9.70;99.90
18041;DHT22;9145;48.588;9.250;2022-11-11T10:06:49;9.70;99.90
18041;DHT22;9145;48.588;9.250;2022-11-11T10:09:23;9.80;99.90
18041;DHT22;9145;48.588;9.250;2022-11-11T10:11:56;9.90;99.90
18041;DHT22;9145;48.588;9.250;2022-11-11T10:14:29;10.00;99.90
18041;DHT22;9145;48.588;9.250;2022-11-11T10:17:06;10.20;99.90
18041;DHT22;9145;48.588;9.250;2022-11-11T10:19:43;10.30;99.90
18041;DHT22;9145;48.588;9.250;2022-11-11T10:22:20;10.30;99.90
18041;DHT22;9145;48.588;9.250;2022-11-11T10:24:52;10.40;99.90
18041;DHT22;9145;48.588;9.250;2022-11-11T10:27:23;10.40;99.90
18041;DHT22;9145;48.588;9.250;2022-11-11T10:29:50;10.40;99.90
18041;DHT22;9145;48.588;9.250;2022-11-11T10:32:20;10.40;99.90
18041;DHT22;9145;48.588;9.250;2022-11-11T10:34:50;10.50;99.90
18041;DHT22;9145;48.588;9.250;2022-11-11T10:37:21;10.70;99.90
18041;DHT22;9145;48.588;9.250;2022-11-11T10:39:59;10.70;99.90
18041;DHT22;9145;48.588;9.250;2022-11-11T10:42:27;10.90;99.90
18041;DHT22;9145;48.588;9.250;2022-11-11T10:44:58;10.80;99.90
18041;DHT22;9145;48.588;9.250;2022-11-11T10:47:41;10.80;99.90
18041;DHT22;9145;48.588;9.250;2022-11-11T10:50:14;10.90;99.90
18041;DHT22;9145;48.588;9.250;2022-11-11T10:52:47;11.00;99.90
18041;DHT22;9145;48.588;9.250;2022-11-11T10:55:19;11.10;99.90
18041;DHT22;9145;48.588;9.250;2022-11-11T10:57:52;11.10;99.90
18041;DHT22;9145;48.588;9.250;2022-11-11T11:00:20;11.20;99.90
18041;DHT22;9145;48.588;9.250;2022-11-11T11:02:53;11.30;99.90
18041;DHT22;9145;48.588;9.250;2022-11-11T11:05:25;11.60;99.90
18041;DHT22;9145;48.588;9.250;2022-11-11T11:07:55;11.60;99.90
18041;DHT22;9145;48.588;9.250;2022-11-11T11:10:28;11.60;99.90
18041;DHT22;9145;48.588;9.250;2022-11-11T11:13:02;11.80;99.90
18041;DHT22;9145;48.588;9.250;2022-11-11T11:15:31;12.00;99.90
18041;DHT22;9145;48.588;9.250;2022-11-11T11:18:04;12.10;99.90
18041;DHT22;9145;48.588;9.250;2022-11-11T11:20:32;12.10;99.90
18041;DHT22;9145;48.588;9.250;2022-11-11T11:22:59;12.20;99.90
18041;DHT22;9145;48.588;9.250;2022-11-11T11:25:29;12.20;99.90
18041;DHT22;9145;48.588;9.250;2022-11-11T11:28:07;12.20;99.90
18041;DHT22;9145;48.588;9.250;2022-11-11T11:30:34;12.20;99.90
18041;DHT22;9145;48.588;9.250;2022-11-11T11:33:03;12.30;99.90
18041;DHT22;9145;48.588;9.250;2022-11-11T11:35:34;12.40;99.90
18041;DHT22;9145;48.588;9.250;2022-11-11T11:38:03;12.40;99.90
18041;DHT22;9145;48.588;9.250;2022-11-11T11:40:45;12.40;99.90
18041;DHT22;9145;48.588;9.250;2022-11-11T11:43:31;12.30;99.90
18041;DHT22;9145;48.588;9.250;2022-11-11T11:46:00;12.40;99.90
18041;DHT22;9145;48.588;9.250;2022-11-11T11:48:36;12.50;99.90
18041;DHT22;9145;48.588;9.250;2022-11-11T11:51:12;12.50;99.90
18041;DHT22;9145;48.588;9.250;2022-11-11T11:53:50;12.60;99.90
18041;DHT22;9145;48.588;9.250;2022-11-11T11:56:28;12.70;99.90
18041;DHT22;9145;48.588;9.250;2022-11-11T11:59:05;12.80;99.90
18041;DHT22;9145;48.588;9.250;2022-11-11T12:01:41;12.90;99.90
18041;DHT22;9145;48.588;9.250;2022-11-11T12:04:31;13.00;99.90
18041;DHT22;9145;48.588;9.250;2022-11-11T12:07:10;13.10;99.90
18041;DHT22;9145;48.588;9.250;2022-11-11T12:09:52;13.10;99.90
18041;DHT22;9145;48.588;9.250;2022-11-11T12:12:29;13.20;99.90
18041;DHT22;9145;48.588;9.250;2022-11-11T12:15:06;13.30;99.90
18041;DHT22;9145;48.588;9.250;2022-11-11T12:17:44;13.50;99.90
18041;DHT22;9145;48.588;9.250;2022-11-11T12:20:17;13.50;99.90
18041;DHT22;9145;48.588;9.250;2022-11-11T12:23:09;13.60;99.90
18041;DHT22;9145;48.588;9.250;2022-11-11T12:25:49;13.40;99.90
18041;DHT22;9145;48.588;9.250;2022-11-11T12:28:28;13.60;99.90
18041;DHT22;9145;48.588;9.250;2022-11-11T12:31:05;13.70;99.90
18041;DHT22;9145;48.588;9.250;2022-11-11T12:33:53;13.70;99.90
18041;DHT22;9145;48.588;9.250;2022-11-11T12:36:31;13.80;99.90
18041;DHT22;9145;48.588;9.250;2022-11-11T12:39:05;13.90;99.90
18041;DHT22;9145;48.588;9.250;2022-11-11T12:41:47;14.10;99.90
18041;DHT22;9145;48.588;9.250;2022-11-11T12:44:16;14.10;99.90
18041;DHT22;9145;48.588;9.250;2022-11-11T12:46:56;14.20;99.90
18041;DHT22;9145;48.588;9.250;2022-11-11T12:49:42;14.40;99.90
18041;DHT22;9145;48.588;9.250;2022-11-11T12:52:22;14.20;99.90
18041;DHT22;9145;48.588;9.250;2022-11-11T12:55:04;14.30;99.90
18041;DHT22;9145;48.588;9.250;2022-11-11T12:57:37;14.40;99.90
18041;DHT22;9145;48.588;9.250;2022-11-11T13:00:09;14.30;99.90
18041;DHT22;9145;48.588;9.250;2022-11-11T13:02:53;14.20;99.90
18041;DHT22;9145;48.588;9.250;2022-11-11T13:05:28;14.10;99.90
18041;DHT22;9145;48.588;9.250;2022-11-11T13:08:24;14.20;99.90
18041;DHT22;9145;48.588;9.250;2022-11-11T13:11:00;14.30;99.90
18041;DHT22;9145;48.588;9.250;2022-11-11T13:13:39;14.60;99.90
18041;DHT22;9145;48.588;9.250;2022-11-11T13:16:08;14.80;99.90
18041;DHT22;9145;48.588;9.250;2022-11-11T13:18:42;14.80;99.90
18041;DHT22;9145;48.588;9.250;2022-11-11T13:21:13;14.70;99.90
18041;DHT22;9145;48.588;9.250;2022-11-11T13:23:42;14.80;99.90
18041;DHT22;9145;48.588;9.250;2022-11-11T13:26:21;14.80;99.90
18041;DHT22;9145;48.588;9.250;2022-11-11T13:28:54;14.70;99.90
18041;DHT22;9145;48.588;9.250;2022-11-11T13:31:30;14.70;99.90
18041;DHT22;9145;48.588;9.250;2022-11-11T13:34:03;14.80;99.90
18041;DHT22;9145;48.588;9.250;2022-11-11T13:36:41;15.00;99.90
18041;DHT22;9145;48.588;9.250;2022-11-11T13:39:22;15.20;99.90
18041;DHT22;9145;48.588;9.250;2022-11-11T13:41:52;15.20;99.90
18041;DHT22;9145;48.588;9.250;2022-11-11T13:44:22;15.40;99.90
18041;DHT22;9145;48.588;9.250;2022-11-11T13:46:50;15.50;99.90
18041;DHT22;9145;48.588;9.250;2022-11-11T13:49:22;15.50;99.90
18041;DHT22;9145;48.588;9.250;2022-11-11T13:51:57;15.40;99.90
18041;DHT22;9145;48.588;9.250;2022-11-11T13:54:28;15.50;99.90
18041;DHT22;9145;48.588;9.250;2022-11-11T13:57:03;15.40;99.90
18041;DHT22;9145;48.588;9.250;2022-11-11T13:59:32;15.30;99.90
18041;DHT22;9145;48.588;9.250;2022-11-11T14:02:27;15.30;99.90
18041;DHT22;9145;48.588;9.250;2022-11-11T14:05:14;15.30;99.90
18041;DHT22;9145;48.588;9.250;2022-11-11T14:07:49;15.50;99.90
18041;DHT22;9145;48.588;9.250;2022-11-11T14:10:49;15.70;99.90
18041;DHT22;9145;48.588;9.250;2022-11-11T14:13:39;15.80;99.90
18041;DHT22;9145;48.588;9.250;2022-11-11T14:16:11;15.90;99.90
18041;DHT22;9145;48.588;9.250;2022-11-11T14:18:47;15.80;99.90
18041;DHT22;9145;48.588;9.250;2022-11-11T14:24:30;15.90;99.90
18041;DHT22;9145;48.588;9.250;2022-11-11T14:27:02;15.90;99.90
18041;DHT22;9145;48.588;9.250;2022-11-11T14:29:31;15.70;99.90
18041;DHT22;9145;48.588;9.250;2022-11-11T14:32:13;15.60;99.90
18041;DHT22;9145;48.588;9.250;2022-11-11T14:35:15;15.70;99.90
18041;DHT22;9145;48.588;9.250;2022-11-11T14:38:06;15.70;99.90
18041;DHT22;9145;48.588;9.250;2022-11-11T14:40:37;15.80;99.90
18041;DHT22;9145;48.588;9.250;2022-11-11T14:43:37;15.80;99.90
18041;DHT22;9145;48.588;9.250;2022-11-11T14:46:07;16.00;99.90
18041;DHT22;9145;48.588;9.250;2022-11-11T14:48:56;16.10;99.90
18041;DHT22;9145;48.588;9.250;2022-11-11T14:55:02;16.30;99.90
18041;DHT22;9145;48.588;9.250;2022-11-11T14:57:33;16.40;99.90
18041;DHT22;9145;48.588;9.250;2022-11-11T15:00:04;16.30;99.90
18041;DHT22;9145;48.588;9.250;2022-11-11T15:02:39;16.20;99.90
18041;DHT22;9145;48.588;9.250;2022-11-11T15:05:15;16.10;99.90
18041;DHT22;9145;48.588;9.250;2022-11-11T15:07:58;16.10;99.90
18041;DHT22;9145;48.588;9.250;2022-11-11T15:10:42;16.10;99.90
18041;DHT22;9145;48.588;9.250;2022-11-11T15:13:43;16.20;99.90
18041;DHT22;9145;48.588;9.250;2022-11-11T15:16:23;16.10;99.90
18041;DHT22;9145;48.588;9.250;2022-11-11T15:19:14;15.90;99.90
18041;DHT22;9145;48.588;9.250;2022-11-11T15:21:53;15.70;99.90
18041;DHT22;9145;48.588;9.250;2022-11-11T15:24:30;15.50;99.90
18041;DHT22;9145;48.588;9.250;2022-11-11T15:27:05;15.40;99.90
18041;DHT22;9145;48.588;9.250;2022-11-11T15:29:46;15.20;99.90
18041;DHT22;9145;48.588;9.250;2022-11-11T15:32:27;15.00;99.90
18041;DHT22;9145;48.588;9.250;2022-11-11T15:35:05;14.90;99.90
18041;DHT22;9145;48.588;9.250;2022-11-11T15:37:35;14.70;99.90
18041;DHT22;9145;48.588;9.250;2022-11-11T15:40:03;14.60;99.90
18041;DHT22;9145;48.588;9.250;2022-11-11T15:42:33;14.40;99.90
18041;DHT22;9145;48.588;9.250;2022-11-11T15:45:06;14.20;99.90
18041;DHT22;9145;48.588;9.250;2022-11-11T15:47:35;14.00;99.90
18041;DHT22;9145;48.588;9.250;2022-11-11T15:50:03;13.90;99.90
18041;DHT22;9145;48.588;9.250;2022-11-11T15:52:31;13.70;99.90
18041;DHT22;9145;48.588;9.250;2022-11-11T15:55:00;13.50;99.90
18041;DHT22;9145;48.588;9.250;2022-11-11T15:57:29;13.40;99.90
18041;DHT22;9145;48.588;9.250;2022-11-11T15:59:57;13.30;99.90
18041;DHT22;9145;48.588;9.250;2022-11-11T16:02:26;13.20;99.90
18041;DHT22;9145;48.588;9.250;2022-11-11T16:04:57;13.20;99.90
18041;DHT22;9145;48.588;9.250;2022-11-11T16:07:28;13.10;99.90
18041;DHT22;9145;48.588;9.250;2022-11-11T16:09:58;13.10;99.90
18041;DHT22;9145;48.588;9.250;2022-11-11T16:12:35;13.10;99.90
18041;DHT22;9145;48.588;9.250;2022-11-11T16:15:07;13.10;99.90
18041;DHT22;9145;48.588;9.250;2022-11-11T16:17:39;13.00;99.90
18041;DHT22;9145;48.588;9.250;2022-11-11T16:20:13;13.00;99.90
18041;DHT22;9145;48.588;9.250;2022-11-11T16:22:43;12.80;99.90
18041;DHT22;9145;48.588;9.250;2022-11-11T16:25:13;12.60;99.90
18041;DHT22;9145;48.588;9.250;2022-11-11T16:27:41;12.40;99.90
18041;DHT22;9145;48.588;9.250;2022-11-11T16:30:16;12.30;99.90
18041;DHT22;9145;48.588;9.250;2022-11-11T16:32:44;12.30;99.90
18041;DHT22;9145;48.588;9.250;2022-11-11T16:35:25;12.30;99.90